createdAt,value
2019-04-16T00:01:50.659Z,39.47
2019-04-16T00:04:00.058Z,39.39
2019-04-16T00:06:13.582Z,39.36
2019-04-16T00:08:27.660Z,39.40
2019-04-16T00:10:40.486Z,39.42
2019-04-16T00:13:03.349Z,39.62
2019-04-16T00:15:07.316Z,40.03
2019-04-16T00:17:13.160Z,40.74
2019-04-16T00:19:16.609Z,41.28
2019-04-16T00:21:48.718Z,41.78
2019-04-16T00:24:11.620Z,41.38
2019-04-16T00:26:15.367Z,41.21
2019-04-16T00:28:19.249Z,41.62
2019-04-16T00:30:25.994Z,41.99
2019-04-16T00:32:30.393Z,42.11
2019-04-16T00:34:35.193Z,42.33
2019-04-16T00:36:39.063Z,42.47
2019-04-16T00:38:43.844Z,42.69
2019-04-16T00:40:47.697Z,43.03
2019-04-16T00:42:51.443Z,43.59
2019-04-16T00:44:55.565Z,44.06
2019-04-16T00:46:59.453Z,44.76
2019-04-16T00:49:03.362Z,44.91
2019-04-16T00:51:07.308Z,45.42
2019-04-16T00:53:12.093Z,45.67
2019-04-16T00:55:16.005Z,45.85
2019-04-16T00:57:19.781Z,46.32
2019-04-16T00:59:24.181Z,46.57
2019-04-16T01:01:29.660Z,47.07
2019-04-16T01:03:33.516Z,47.14
2019-04-16T01:05:37.264Z,47.44
2019-04-16T01:07:41.121Z,47.61
2019-04-16T01:09:44.858Z,47.90
2019-04-16T01:11:49.648Z,48.03
2019-04-16T01:13:55.689Z,48.07
2019-04-16T01:16:02.460Z,47.98
2019-04-16T01:18:07.818Z,48.26
2019-04-16T01:20:12.643Z,48.55
2019-04-16T01:22:16.870Z,49.01
2019-04-16T01:24:21.188Z,49.72
2019-04-16T01:26:26.818Z,50.48
2019-04-16T01:28:32.739Z,50.91
2019-04-16T01:30:55.525Z,51.25
2019-04-16T01:33:07.126Z,51.32
2019-04-16T01:35:29.693Z,51.39
2019-04-16T01:37:56.730Z,51.42
2019-04-16T01:40:01.381Z,51.42
2019-04-16T01:42:05.221Z,51.35
2019-04-16T01:44:08.946Z,51.44
2019-04-16T01:46:12.776Z,51.55
2019-04-16T01:48:16.664Z,51.62
2019-04-16T01:50:20.576Z,51.68
2019-04-16T01:52:24.468Z,51.67
2019-04-16T01:54:28.378Z,51.87
2019-04-16T01:56:32.290Z,52.04
2019-04-16T01:58:36.165Z,52.01
2019-04-16T02:00:40.109Z,52.11
2019-04-16T02:02:46.359Z,52.24
2019-04-16T02:04:52.113Z,52.23
2019-04-16T02:06:57.255Z,52.34
2019-04-16T02:09:02.766Z,52.11
2019-04-16T02:11:10.647Z,51.98
2019-04-16T02:13:15.026Z,52.17
2019-04-16T02:15:21.613Z,51.94
2019-04-16T02:17:27.027Z,51.90
2019-04-16T02:19:32.822Z,51.84
2019-04-16T02:21:35.946Z,51.81
2019-04-16T02:23:39.750Z,51.79
2019-04-16T02:25:43.579Z,51.79
2019-04-16T02:27:47.374Z,51.83
2019-04-16T02:29:53.603Z,52.09
2019-04-16T02:31:56.639Z,52.18
2019-04-16T02:34:00.789Z,52.18
2019-04-16T02:36:04.748Z,52.34
2019-04-16T02:38:12.231Z,52.43
2019-04-16T02:40:18.485Z,52.49
2019-04-16T02:42:20.762Z,52.64
2019-04-16T02:44:24.640Z,52.77
2019-04-16T02:46:32.417Z,52.77
2019-04-16T02:48:34.080Z,52.87
2019-04-16T02:50:42.321Z,52.87
2019-04-16T02:53:00.173Z,53.13
2019-04-16T02:55:21.763Z,53.25
2019-04-16T02:57:46.786Z,53.37
2019-04-16T02:59:50.602Z,53.34
2019-04-16T03:02:17.396Z,53.42
2019-04-16T03:04:26.710Z,53.68
2019-04-16T03:06:31.973Z,53.78
2019-04-16T03:08:36.160Z,53.88
2019-04-16T03:10:41.777Z,54.00
2019-04-16T03:12:46.212Z,54.46
2019-04-16T03:14:50.960Z,54.35
2019-04-16T03:17:10.680Z,54.30
2019-04-16T03:19:20.039Z,54.28
2019-04-16T03:21:24.577Z,54.12
2019-04-16T03:23:27.900Z,54.11
2019-04-16T03:25:31.685Z,54.28
2019-04-16T03:27:35.504Z,54.32
2019-04-16T03:29:39.374Z,54.39
2019-04-16T03:31:43.131Z,54.45
2019-04-16T03:33:50.201Z,54.64
2019-04-16T03:35:52.442Z,54.65
2019-04-16T03:37:56.291Z,55.03
2019-04-16T03:40:00.046Z,55.00
2019-04-16T03:42:03.874Z,54.90
2019-04-16T03:44:07.866Z,55.06
2019-04-16T03:46:12.740Z,55.20
2019-04-16T03:48:17.233Z,55.32
2019-04-16T03:50:21.047Z,55.42
2019-04-16T03:52:24.815Z,55.35
2019-04-16T03:54:28.528Z,55.17
2019-04-16T03:56:32.401Z,55.06
2019-04-16T03:58:38.387Z,55.24
2019-04-16T04:00:44.193Z,55.38
2019-04-16T04:02:48.040Z,55.39
2019-04-16T04:04:51.833Z,55.50
2019-04-16T04:06:55.665Z,55.74
2019-04-16T04:09:00.486Z,55.72
2019-04-16T04:11:09.180Z,55.88
2019-04-16T04:13:10.032Z,55.77
2019-04-16T04:15:14.065Z,55.93
2019-04-16T04:17:17.841Z,56.37
2019-04-16T04:19:21.633Z,56.33
2019-04-16T04:21:25.504Z,56.36
2019-04-16T04:23:29.427Z,56.48
2019-04-16T04:25:35.971Z,56.48
2019-04-16T04:27:38.888Z,56.40
2019-04-16T04:29:46.072Z,56.33
2019-04-16T04:31:48.263Z,56.38
2019-04-16T04:33:52.055Z,56.75
2019-04-16T04:35:55.858Z,56.89
2019-04-16T04:38:00.709Z,57.09
2019-04-16T04:40:05.675Z,57.00
2019-04-16T04:42:09.417Z,56.81
2019-04-16T04:44:13.206Z,56.86
2019-04-16T04:46:17.008Z,57.05
2019-04-16T04:48:24.141Z,56.85
2019-04-16T04:50:26.269Z,56.85
2019-04-16T04:52:30.091Z,56.78
2019-04-16T04:54:33.815Z,56.85
2019-04-16T04:56:37.547Z,56.91
2019-04-16T04:58:41.410Z,57.24
2019-04-16T05:00:45.317Z,57.34
2019-04-16T05:02:49.060Z,57.38
2019-04-16T05:05:04.845Z,57.68
2019-04-16T05:07:08.993Z,57.96
2019-04-16T05:09:12.785Z,58.69
2019-04-16T05:11:17.095Z,58.85
2019-04-16T05:13:23.955Z,58.65
2019-04-16T05:15:29.432Z,58.62
2019-04-16T05:17:31.982Z,58.57
2019-04-16T05:19:35.790Z,58.43
2019-04-16T05:21:39.576Z,58.32
2019-04-16T05:23:43.399Z,58.25
2019-04-16T05:25:47.189Z,58.23
2019-04-16T05:27:50.997Z,57.99
2019-04-16T05:29:54.800Z,57.70
2019-04-16T05:31:58.592Z,57.58
2019-04-16T05:34:02.563Z,57.53
2019-04-16T05:36:06.305Z,57.46
2019-04-16T05:38:10.097Z,57.20
2019-04-16T05:40:14.075Z,56.78
2019-04-16T05:42:17.887Z,56.50
2019-04-16T05:44:22.850Z,56.36
2019-04-16T05:46:26.663Z,56.07
2019-04-16T05:48:30.489Z,55.61
2019-04-16T05:50:34.260Z,55.15
2019-04-16T05:52:38.135Z,54.80
2019-04-16T05:54:51.627Z,54.54
2019-04-16T05:56:56.941Z,54.41
2019-04-16T05:59:02.670Z,54.36
2019-04-16T06:01:31.536Z,54.38
2019-04-16T06:03:35.258Z,54.21
2019-04-16T06:05:39.181Z,53.85
2019-04-16T06:07:42.982Z,53.43
2019-04-16T06:09:46.789Z,53.25
2019-04-16T06:11:50.591Z,52.99
2019-04-16T06:14:00.467Z,52.82
2019-04-16T06:16:25.465Z,52.64
2019-04-16T06:18:52.781Z,52.65
2019-04-16T06:21:25.037Z,52.78
2019-04-16T06:23:44.662Z,52.69
2019-04-16T06:26:14.250Z,52.22
2019-04-16T06:28:35.841Z,51.67
2019-04-16T06:31:12.122Z,51.41
2019-04-16T06:33:19.707Z,50.88
2019-04-16T06:35:43.874Z,49.98
2019-04-16T06:37:58.081Z,48.99
2019-04-16T06:40:09.100Z,47.97
2019-04-16T06:42:21.156Z,47.60
2019-04-16T06:44:24.321Z,46.77
2019-04-16T06:46:47.143Z,46.32
2019-04-16T06:49:08.683Z,45.86
2019-04-16T06:51:43.640Z,45.16
2019-04-16T06:54:11.220Z,44.56
2019-04-16T06:56:32.528Z,44.03
2019-04-16T06:59:32.525Z,43.45
2019-04-16T07:01:16.565Z,42.91
2019-04-16T07:03:36.719Z,42.21
2019-04-16T07:05:57.940Z,42.01
2019-04-16T07:08:20.057Z,41.20
2019-04-16T07:10:28.935Z,39.81
2019-04-16T07:12:37.953Z,39.65
2019-04-16T07:14:39.472Z,38.69
2019-04-16T07:16:43.550Z,38.20
2019-04-16T07:18:47.377Z,38.19
2019-04-16T07:20:51.230Z,37.83
2019-04-16T07:22:56.008Z,37.68
2019-04-16T07:25:03.864Z,35.61
2019-04-16T07:27:05.543Z,35.87
2019-04-16T07:29:16.785Z,34.24
2019-04-16T07:31:40.779Z,33.46
2019-04-16T07:33:57.995Z,33.24
2019-04-16T07:36:27.157Z,32.91
2019-04-16T07:38:52.295Z,32.13
2019-04-16T07:41:16.806Z,32.01
2019-04-16T07:43:44.458Z,31.53
2019-04-16T07:46:00.728Z,30.80
2019-04-16T07:48:15.064Z,30.62
2019-04-16T07:50:40.643Z,30.45
2019-04-16T07:53:06.181Z,30.40
2019-04-16T07:55:40.953Z,29.75
2019-04-16T07:57:46.752Z,29.65
2019-04-16T07:59:50.611Z,28.88
2019-04-16T08:01:54.321Z,29.09
2019-04-16T08:04:01.365Z,28.80
2019-04-16T08:06:03.685Z,28.05
2019-04-16T08:08:08.575Z,27.79
2019-04-16T08:10:13.059Z,27.64
2019-04-16T08:12:29.811Z,27.80
2019-04-16T08:14:23.389Z,26.73
2019-04-16T08:16:27.288Z,26.67
2019-04-16T08:18:31.182Z,26.77
2019-04-16T08:20:37.027Z,26.73
2019-04-16T08:22:40.917Z,26.51
2019-04-16T08:24:48.049Z,25.29
2019-04-16T08:26:51.845Z,24.10
2019-04-16T08:28:56.661Z,23.28
2019-04-16T08:31:00.936Z,22.13
2019-04-16T08:33:04.761Z,22.75
2019-04-16T08:35:08.757Z,23.52
2019-04-16T08:37:13.555Z,23.60
2019-04-16T08:39:17.412Z,24.06
2019-04-16T08:41:21.709Z,24.36
2019-04-16T08:43:26.653Z,24.20
2019-04-16T08:45:31.276Z,24.87
2019-04-16T08:47:35.183Z,24.58
2019-04-16T08:49:38.995Z,24.35
2019-04-16T08:51:42.896Z,24.48
2019-04-16T08:53:47.632Z,24.38
2019-04-16T08:55:52.429Z,24.41
2019-04-16T08:57:56.158Z,24.65
2019-04-16T08:59:59.972Z,24.16
2019-04-16T09:02:04.811Z,24.21
2019-04-16T09:04:09.696Z,24.36
2019-04-16T09:06:14.288Z,24.03
2019-04-16T09:08:38.077Z,24.28
2019-04-16T09:10:44.526Z,23.36
2019-04-16T09:13:02.019Z,23.45
2019-04-16T09:14:55.990Z,23.34
2019-04-16T09:17:11.240Z,23.42
2019-04-16T09:19:16.708Z,23.42
2019-04-16T09:21:21.595Z,23.15
2019-04-16T09:23:26.663Z,22.99
2019-04-16T09:26:13.371Z,23.22
2019-04-16T09:28:32.158Z,23.25
2019-04-16T09:30:57.798Z,22.49
2019-04-16T09:33:23.345Z,22.69
2019-04-16T09:35:52.198Z,22.84
2019-04-16T09:38:20.788Z,22.27
2019-04-16T09:40:42.418Z,22.22
2019-04-16T09:42:46.241Z,21.84
2019-04-16T09:44:51.125Z,22.15
2019-04-16T09:46:59.459Z,21.63
2019-04-16T09:49:00.482Z,20.58
2019-04-16T09:51:04.411Z,21.42
2019-04-16T09:53:08.329Z,21.15
2019-04-16T09:55:15.167Z,20.63
2019-04-16T09:57:17.929Z,20.65
2019-04-16T09:59:27.744Z,20.73
2019-04-16T10:01:43.806Z,20.83
2019-04-16T10:03:49.721Z,20.59
2019-04-16T10:05:53.546Z,20.58
2019-04-16T10:07:57.380Z,20.67
2019-04-16T10:10:01.209Z,20.68
2019-04-16T10:12:07.710Z,20.53
2019-04-16T10:14:10.689Z,20.25
2019-04-16T10:16:15.894Z,20.51
2019-04-16T10:18:19.760Z,20.30
2019-04-16T10:20:23.579Z,19.74
2019-04-16T10:22:27.412Z,19.99
2019-04-16T10:25:00.527Z,20.14
2019-04-16T10:27:04.611Z,19.74
2019-04-16T10:29:12.605Z,20.03
2019-04-16T10:31:18.763Z,20.26
2019-04-16T10:33:22.697Z,20.03
2019-04-16T10:35:26.798Z,20.00
2019-04-16T10:37:30.559Z,19.71
2019-04-16T10:39:56.427Z,19.71
2019-04-16T10:42:19.172Z,19.04
2019-04-16T10:44:47.845Z,19.04
2019-04-16T10:47:12.507Z,18.82
2019-04-16T10:49:24.749Z,19.07
2019-04-16T10:51:35.971Z,18.90
2019-04-16T10:53:46.848Z,18.87
2019-04-16T10:56:13.658Z,18.90
2019-04-16T10:58:51.582Z,18.95
2019-04-16T11:01:03.208Z,19.01
2019-04-16T11:03:28.549Z,18.58
2019-04-16T11:05:41.943Z,18.52
2019-04-16T11:07:46.582Z,18.00
2019-04-16T11:09:50.433Z,18.00
2019-04-16T11:11:54.231Z,18.75
2019-04-16T11:14:00.683Z,18.04
2019-04-16T11:16:11.256Z,17.49
2019-04-16T11:18:15.076Z,17.76
2019-04-16T11:20:18.961Z,17.76
2019-04-16T11:22:22.805Z,17.36
2019-04-16T11:24:26.744Z,17.64
2019-04-16T11:26:30.498Z,17.02
2019-04-16T11:28:34.378Z,17.24
2019-04-16T11:30:43.922Z,16.53
2019-04-16T11:32:47.823Z,16.91
2019-04-16T11:34:51.639Z,17.29
2019-04-16T11:36:58.271Z,16.71
2019-04-16T11:39:01.902Z,17.15
2019-04-16T11:41:06.687Z,16.58
2019-04-16T11:43:10.523Z,16.52
2019-04-16T11:45:15.371Z,16.78
2019-04-16T11:47:19.237Z,16.01
2019-04-16T11:49:24.055Z,16.19
2019-04-16T11:51:27.814Z,16.50
2019-04-16T11:53:31.671Z,16.35
2019-04-16T11:55:35.554Z,15.52
2019-04-16T11:57:39.464Z,15.55
2019-04-16T11:59:43.210Z,15.79
2019-04-16T12:02:00.679Z,15.50
2019-04-16T12:04:27.579Z,15.69
2019-04-16T12:06:39.945Z,15.64
2019-04-16T12:09:01.767Z,15.47
2019-04-16T12:11:20.531Z,15.46
2019-04-16T12:13:52.520Z,15.25
2019-04-16T12:16:07.011Z,14.59
2019-04-16T12:18:17.328Z,15.01
2019-04-16T12:20:38.982Z,14.35
2019-04-16T12:22:50.591Z,14.24
2019-04-16T12:25:18.673Z,14.02
2019-04-16T12:27:56.411Z,13.65
2019-04-16T12:30:17.853Z,13.54
2019-04-16T12:32:29.310Z,13.41
2019-04-16T12:34:43.155Z,13.48
2019-04-16T12:37:08.752Z,13.32
2019-04-16T12:39:40.549Z,12.93
2019-04-16T12:42:15.473Z,12.83
2019-04-16T12:44:44.173Z,12.50
2019-04-16T12:46:53.713Z,12.41
2019-04-16T12:49:17.768Z,12.00
2019-04-16T12:51:40.993Z,11.87
2019-04-16T12:53:54.690Z,12.40
2019-04-16T12:56:12.810Z,12.11
2019-04-16T12:58:28.705Z,11.83
2019-04-16T13:00:51.607Z,11.50
2019-04-16T13:03:32.716Z,10.93
2019-04-16T13:05:50.956Z,10.80
2019-04-16T13:08:14.301Z,10.80
2019-04-16T13:10:33.867Z,11.00
2019-04-16T13:13:05.782Z,10.52
2019-04-16T13:15:22.820Z,10.04
2019-04-16T13:17:54.949Z,10.10
2019-04-16T13:20:10.496Z,9.49
2019-04-16T13:22:15.536Z,9.64
2019-04-16T13:24:32.455Z,9.95
2019-04-16T13:26:39.014Z,9.41
2019-04-16T13:28:42.811Z,9.46
2019-04-16T13:30:46.613Z,9.38
2019-04-16T13:32:50.922Z,8.93
2019-04-16T13:34:57.908Z,9.03
2019-04-16T13:37:01.013Z,9.56
2019-04-16T13:39:20.271Z,9.74
2019-04-16T13:41:27.040Z,9.67
2019-04-16T13:43:36.721Z,9.91
2019-04-16T13:45:41.060Z,9.77
2019-04-16T13:47:54.771Z,9.59
2019-04-16T13:50:17.009Z,9.77
2019-04-16T13:52:25.158Z,9.37
2019-04-16T13:54:45.350Z,9.27
2019-04-16T13:56:54.722Z,9.66
2019-04-16T13:59:18.611Z,9.61
2019-04-16T14:01:25.341Z,9.90
2019-04-16T14:03:29.135Z,10.57
2019-04-16T14:05:37.434Z,10.93
2019-04-16T14:07:39.681Z,11.66
2019-04-16T14:09:44.540Z,11.88
2019-04-16T14:11:51.226Z,12.66
2019-04-16T14:13:53.914Z,12.95
2019-04-16T14:15:57.710Z,12.77
2019-04-16T14:18:01.512Z,13.34
2019-04-16T14:20:08.659Z,12.98
2019-04-16T14:22:13.514Z,13.39
2019-04-16T14:24:17.341Z,13.35
2019-04-16T14:26:21.283Z,13.41
2019-04-16T14:28:26.082Z,13.79
2019-04-16T14:30:35.196Z,13.92
2019-04-16T14:32:38.995Z,13.91
2019-04-16T14:35:13.946Z,14.51
2019-04-16T14:37:17.936Z,15.03
2019-04-16T14:39:29.633Z,15.01
2019-04-16T14:41:33.387Z,15.00
2019-04-16T14:43:39.628Z,14.74
2019-04-16T14:45:57.639Z,14.61
2019-04-16T14:47:51.960Z,14.82
2019-04-16T14:49:55.857Z,15.05
2019-04-16T14:52:02.227Z,14.94
2019-04-16T14:54:18.356Z,15.13
2019-04-16T14:56:35.783Z,15.38
2019-04-16T14:58:59.561Z,15.80
2019-04-16T15:01:20.930Z,15.63
2019-04-16T15:03:43.474Z,15.40
2019-04-16T15:05:58.173Z,15.46
2019-04-16T15:08:20.007Z,15.18
2019-04-16T15:11:02.234Z,15.17
2019-04-16T15:13:31.514Z,15.49
2019-04-16T15:15:43.062Z,15.98
2019-04-16T15:18:05.786Z,15.89
2019-04-16T15:20:41.029Z,16.01
2019-04-16T15:22:54.079Z,16.11
2019-04-16T15:25:06.184Z,16.11
2019-04-16T15:27:28.171Z,16.18
2019-04-16T15:30:04.336Z,16.22
2019-04-16T15:32:27.083Z,15.99
2019-04-16T15:34:41.954Z,16.00
2019-04-16T15:37:00.058Z,16.05
2019-04-16T15:39:18.127Z,16.29
2019-04-16T15:41:26.609Z,16.41
2019-04-16T15:43:41.260Z,16.41
2019-04-16T15:46:07.996Z,16.39
2019-04-16T15:48:39.688Z,16.54
2019-04-16T15:51:21.683Z,16.94
2019-04-16T15:53:44.429Z,17.11
2019-04-16T15:55:51.719Z,16.72
2019-04-16T15:58:07.773Z,16.41
2019-04-16T16:00:30.739Z,16.40
2019-04-16T16:03:06.557Z,16.71
2019-04-16T16:05:19.835Z,16.46
2019-04-16T16:07:27.413Z,16.90
2019-04-16T16:09:50.199Z,17.58
2019-04-16T16:12:04.994Z,17.77
2019-04-16T16:14:08.795Z,17.22
2019-04-16T16:16:17.683Z,17.23
2019-04-16T16:18:18.017Z,17.52
2019-04-16T16:20:21.971Z,18.04
2019-04-16T16:22:26.766Z,18.36
2019-04-16T16:24:30.553Z,18.36
2019-04-16T16:26:34.375Z,18.56
2019-04-16T16:28:38.141Z,18.52
2019-04-16T16:30:42.026Z,18.56
2019-04-16T16:32:45.871Z,18.44
2019-04-16T16:34:50.678Z,17.90
2019-04-16T16:36:54.603Z,18.01
2019-04-16T16:38:58.488Z,18.55
2019-04-16T16:41:03.064Z,18.80
2019-04-16T16:43:08.722Z,18.78
2019-04-16T16:45:12.716Z,18.91
2019-04-16T16:47:35.324Z,18.75
2019-04-16T16:49:39.145Z,19.09
2019-04-16T16:52:00.201Z,19.23
2019-04-16T16:54:10.031Z,18.99
2019-04-16T16:56:21.158Z,18.79
2019-04-16T16:58:43.018Z,18.88
2019-04-16T17:00:56.346Z,18.86
2019-04-16T17:03:17.655Z,19.33
2019-04-16T17:05:30.706Z,19.91
2019-04-16T17:07:34.543Z,20.37
2019-04-16T17:09:38.431Z,20.78
2019-04-16T17:11:43.114Z,21.23
2019-04-16T17:13:47.696Z,20.92
2019-04-16T17:15:51.781Z,20.73
2019-04-16T17:17:55.695Z,20.86
2019-04-16T17:19:59.968Z,20.94
2019-04-16T17:22:04.016Z,21.03
2019-04-16T17:24:13.749Z,21.18
2019-04-16T17:26:17.655Z,21.26
2019-04-16T17:28:21.497Z,21.35
2019-04-16T17:30:25.417Z,21.53
2019-04-16T17:32:29.308Z,21.53
2019-04-16T17:34:33.113Z,21.72
2019-04-16T17:36:37.013Z,21.84
2019-04-16T17:38:40.793Z,21.76
2019-04-16T17:41:00.200Z,21.95
2019-04-16T17:43:13.863Z,21.96
2019-04-16T17:45:36.984Z,22.01
2019-04-16T17:48:03.182Z,22.04
2019-04-16T17:50:16.379Z,22.31
2019-04-16T17:52:29.859Z,22.26
2019-04-16T17:54:41.478Z,22.47
2019-04-16T17:56:55.520Z,22.62
2019-04-16T17:59:02.850Z,22.66
2019-04-16T18:01:28.091Z,22.91
2019-04-16T18:03:38.890Z,22.88
2019-04-16T18:05:50.723Z,22.84
2019-04-16T18:08:20.965Z,22.87
2019-04-16T18:10:34.600Z,23.00
2019-04-16T18:13:00.451Z,23.14
2019-04-16T18:15:11.175Z,23.26
2019-04-16T18:17:27.626Z,23.53
2019-04-16T18:19:55.220Z,24.00
2019-04-16T18:22:19.569Z,24.29
2019-04-16T18:24:44.507Z,24.36
2019-04-16T18:27:05.859Z,24.72
2019-04-16T18:29:19.956Z,25.04
2019-04-16T18:31:42.852Z,25.20
2019-04-16T18:33:54.974Z,25.25
2019-04-16T18:36:29.877Z,25.23
2019-04-16T18:38:49.553Z,25.18
2019-04-16T18:41:18.519Z,25.50
2019-04-16T18:43:35.184Z,25.80
2019-04-16T18:46:01.052Z,26.03
2019-04-16T18:48:13.742Z,26.25
2019-04-16T18:50:23.563Z,26.38
2019-04-16T18:52:26.161Z,26.30
2019-04-16T18:54:30.066Z,26.38
2019-04-16T18:56:33.941Z,26.58
2019-04-16T18:58:41.467Z,26.76
2019-04-16T19:00:45.872Z,26.78
2019-04-16T19:02:49.687Z,26.64
2019-04-16T19:04:53.557Z,26.71
2019-04-16T19:06:57.274Z,26.74
2019-04-16T19:09:01.191Z,26.92
2019-04-16T19:11:05.195Z,27.05
2019-04-16T19:13:11.413Z,27.01
2019-04-16T19:15:14.636Z,27.00
2019-04-16T19:17:18.447Z,26.91
2019-04-16T19:19:22.705Z,26.92
2019-04-16T19:21:27.676Z,26.92
2019-04-16T19:23:31.486Z,26.95
2019-04-16T19:25:35.323Z,26.83
2019-04-16T19:27:39.111Z,26.55
2019-04-16T19:29:45.512Z,26.50
2019-04-16T19:31:48.534Z,26.37
2019-04-16T19:33:52.643Z,26.45
2019-04-16T19:35:57.428Z,26.43
2019-04-16T19:38:02.387Z,26.32
2019-04-16T19:40:06.986Z,26.18
2019-04-16T19:42:11.326Z,26.15
2019-04-16T19:44:15.275Z,26.20
2019-04-16T19:46:20.139Z,26.27
2019-04-16T19:48:35.461Z,26.37
2019-04-16T19:50:35.848Z,26.40
2019-04-16T19:52:35.016Z,26.42
2019-04-16T19:54:38.818Z,26.43
2019-04-16T19:56:42.708Z,26.44
2019-04-16T19:58:47.257Z,26.53
2019-04-16T20:00:53.959Z,26.55
2019-04-16T20:02:57.491Z,26.45
2019-04-16T20:05:01.252Z,26.39
2019-04-16T20:07:05.233Z,26.40
2019-04-16T20:09:09.275Z,26.45
2019-04-16T20:11:13.001Z,26.52
2019-04-16T20:13:16.826Z,26.42
2019-04-16T20:15:20.722Z,26.58
2019-04-16T20:17:24.531Z,26.49
2019-04-16T20:19:28.445Z,26.47
2019-04-16T20:21:32.250Z,26.06
2019-04-16T20:23:36.012Z,26.13
2019-04-16T20:25:39.834Z,26.24
2019-04-16T20:27:43.584Z,26.09
2019-04-16T20:29:47.348Z,26.05
2019-04-16T20:31:51.191Z,25.99
2019-04-16T20:33:54.945Z,26.09
2019-04-16T20:35:58.763Z,26.10
2019-04-16T20:38:02.645Z,26.03
2019-04-16T20:40:06.905Z,26.10
2019-04-16T20:42:10.643Z,26.13
2019-04-16T20:44:14.483Z,26.22
2019-04-16T20:46:18.287Z,26.36
2019-04-16T20:48:22.090Z,26.53
2019-04-16T20:50:25.915Z,26.62
2019-04-16T20:52:30.855Z,26.71
2019-04-16T20:54:35.681Z,26.61
2019-04-16T20:56:40.657Z,26.30
2019-04-16T20:58:45.524Z,26.47
2019-04-16T21:00:52.147Z,26.75
2019-04-16T21:02:56.062Z,26.50
2019-04-16T21:05:02.584Z,26.39
2019-04-16T21:07:05.392Z,26.44
2019-04-16T21:09:09.251Z,26.49
2019-04-16T21:11:14.147Z,26.44
2019-04-16T21:13:18.048Z,26.42
2019-04-16T21:15:23.724Z,26.50
2019-04-16T21:17:27.618Z,26.52
2019-04-16T21:19:47.984Z,26.71
2019-04-16T21:21:56.505Z,26.73
2019-04-16T21:23:59.520Z,26.74
2019-04-16T21:26:03.387Z,26.77
2019-04-16T21:28:14.702Z,26.95
2019-04-16T21:30:18.848Z,26.70
2019-04-16T21:32:40.432Z,26.85
2019-04-16T21:34:50.061Z,26.90
2019-04-16T21:37:10.565Z,26.88
2019-04-16T21:39:24.077Z,26.83
2019-04-16T21:41:28.759Z,26.80
2019-04-16T21:43:35.742Z,26.77
2019-04-16T21:45:39.067Z,26.86
2019-04-16T21:47:44.819Z,27.13
2019-04-16T21:49:49.559Z,27.35
2019-04-16T21:52:08.257Z,27.08
2019-04-16T21:54:11.991Z,27.13
2019-04-16T21:56:15.796Z,27.15
2019-04-16T21:58:19.635Z,27.13
2019-04-16T22:00:41.350Z,27.21
2019-04-16T22:02:46.573Z,27.20
2019-04-16T22:04:50.477Z,27.25
2019-04-16T22:06:54.389Z,27.11
2019-04-16T22:08:59.079Z,27.19
2019-04-16T22:11:03.971Z,27.28
2019-04-16T22:13:07.684Z,26.91
2019-04-16T22:15:11.779Z,26.75
2019-04-16T22:17:16.638Z,26.57
2019-04-16T22:19:20.427Z,26.57
2019-04-16T22:21:24.273Z,26.52
2019-04-16T22:23:29.119Z,26.51
2019-04-16T22:25:32.970Z,26.57
2019-04-16T22:27:39.503Z,26.66
2019-04-16T22:29:47.232Z,26.81
2019-04-16T22:31:48.816Z,26.87
2019-04-16T22:33:52.618Z,26.77
2019-04-16T22:35:56.414Z,26.78
2019-04-16T22:38:00.237Z,26.88
2019-04-16T22:40:38.454Z,26.93
2019-04-16T22:42:48.367Z,27.13
2019-04-16T22:45:11.002Z,27.18
2019-04-16T22:47:18.333Z,27.03
2019-04-16T22:49:23.182Z,26.93
2019-04-16T22:51:27.392Z,26.93
2019-04-16T22:53:32.270Z,26.92
2019-04-16T22:55:36.297Z,26.89
2019-04-16T22:57:40.102Z,26.93
2019-04-16T22:59:43.854Z,26.88
2019-04-16T23:01:48.137Z,26.90
2019-04-16T23:03:53.385Z,27.05
2019-04-16T23:06:00.968Z,26.91
2019-04-16T23:08:03.307Z,26.86
2019-04-16T23:10:07.230Z,26.88
2019-04-16T23:12:11.029Z,26.88
2019-04-16T23:14:14.819Z,27.04
2019-04-16T23:16:18.630Z,27.16
2019-04-16T23:18:23.459Z,27.28
2019-04-16T23:20:29.609Z,27.24
2019-04-16T23:22:33.886Z,27.35
2019-04-16T23:24:37.713Z,27.36
2019-04-16T23:26:41.436Z,27.29
2019-04-16T23:28:45.233Z,27.37
2019-04-16T23:30:51.305Z,27.53
2019-04-16T23:32:59.068Z,27.42
2019-04-16T23:35:00.115Z,27.52
2019-04-16T23:37:04.004Z,27.66
2019-04-16T23:39:08.159Z,27.79
2019-04-16T23:41:15.346Z,27.92
2019-04-16T23:43:34.004Z,28.04
2019-04-16T23:45:55.154Z,28.00
2019-04-16T23:48:06.010Z,28.02
2019-04-16T23:50:44.773Z,28.13
2019-04-16T23:52:49.572Z,28.26
2019-04-16T23:54:56.195Z,28.39
2019-04-16T23:57:06.598Z,28.53
2019-04-16T23:59:14.884Z,28.69
